sensor_id;sensor_type;location;lat;lon;timestamp;P1;durP1;ratioP1;P2;durP2;ratioP2
76123;SDS011;65173;48.066;20.976;2023-03-14T00:02:45;8.02;;;3.80;;
76123;SDS011;65173;48.066;20.976;2023-03-14T00:05:48;10.75;;;4.68;;
76123;SDS011;65173;48.066;20.976;2023-03-14T00:08:50;10.87;;;5.13;;
76123;SDS011;65173;48.066;20.976;2023-03-14T00:11:53;6.88;;;3.35;;
76123;SDS011;65173;48.066;20.976;2023-03-14T00:14:56;11.23;;;4.78;;
76123;SDS011;65173;48.066;20.976;2023-03-14T00:17:58;5.73;;;3.40;;
76123;SDS011;65173;48.066;20.976;2023-03-14T00:21:03;8.50;;;3.88;;
76123;SDS011;65173;48.066;20.976;2023-03-14T00:24:07;6.82;;;4.47;;
76123;SDS011;65173;48.066;20.976;2023-03-14T00:27:10;9.57;;;4.55;;
76123;SDS011;65173;48.066;20.976;2023-03-14T00:30:13;9.77;;;4.40;;
76123;SDS011;65173;48.066;20.976;2023-03-14T00:33:16;8.48;;;4.70;;
76123;SDS011;65173;48.066;20.976;2023-03-14T00:36:19;9.35;;;4.45;;
76123;SDS011;65173;48.066;20.976;2023-03-14T00:39:23;7.40;;;4.30;;
76123;SDS011;65173;48.066;20.976;2023-03-14T00:42:26;9.38;;;4.05;;
76123;SDS011;65173;48.066;20.976;2023-03-14T00:45:29;8.13;;;5.38;;
76123;SDS011;65173;48.066;20.976;2023-03-14T00:48:35;11.30;;;5.63;;
76123;SDS011;65173;48.066;20.976;2023-03-14T00:51:38;14.18;;;6.57;;
76123;SDS011;65173;48.066;20.976;2023-03-14T00:54:40;10.27;;;3.50;;
76123;SDS011;65173;48.066;20.976;2023-03-14T00:57:43;12.23;;;5.40;;
76123;SDS011;65173;48.066;20.976;2023-03-14T01:00:48;5.53;;;3.67;;
76123;SDS011;65173;48.066;20.976;2023-03-14T01:03:52;7.45;;;4.60;;
76123;SDS011;65173;48.066;20.976;2023-03-14T01:06:56;10.07;;;4.50;;
76123;SDS011;65173;48.066;20.976;2023-03-14T01:09:59;8.83;;;4.20;;
76123;SDS011;65173;48.066;20.976;2023-03-14T01:13:01;8.60;;;4.10;;
76123;SDS011;65173;48.066;20.976;2023-03-14T01:16:06;6.68;;;3.65;;
76123;SDS011;65173;48.066;20.976;2023-03-14T01:19:11;6.67;;;4.00;;
76123;SDS011;65173;48.066;20.976;2023-03-14T01:22:15;6.70;;;3.85;;
76123;SDS011;65173;48.066;20.976;2023-03-14T01:25:17;8.65;;;4.50;;
76123;SDS011;65173;48.066;20.976;2023-03-14T01:28:21;10.65;;;4.30;;
76123;SDS011;65173;48.066;20.976;2023-03-14T01:31:24;8.40;;;3.85;;
76123;SDS011;65173;48.066;20.976;2023-03-14T01:34:27;7.50;;;4.45;;
76123;SDS011;65173;48.066;20.976;2023-03-14T01:37:30;9.23;;;5.45;;
76123;SDS011;65173;48.066;20.976;2023-03-14T01:40:33;6.73;;;4.27;;
76123;SDS011;65173;48.066;20.976;2023-03-14T01:43:36;10.25;;;4.93;;
76123;SDS011;65173;48.066;20.976;2023-03-14T01:49:42;11.70;;;5.37;;
76123;SDS011;65173;48.066;20.976;2023-03-14T01:52:48;9.30;;;4.50;;
76123;SDS011;65173;48.066;20.976;2023-03-14T01:55:54;7.93;;;4.60;;
76123;SDS011;65173;48.066;20.976;2023-03-14T01:59:02;9.20;;;4.78;;
76123;SDS011;65173;48.066;20.976;2023-03-14T02:02:09;10.63;;;5.00;;
76123;SDS011;65173;48.066;20.976;2023-03-14T02:05:16;7.30;;;4.38;;
76123;SDS011;65173;48.066;20.976;2023-03-14T02:08:26;8.80;;;5.20;;
76123;SDS011;65173;48.066;20.976;2023-03-14T02:11:34;9.83;;;4.17;;
76123;SDS011;65173;48.066;20.976;2023-03-14T02:14:42;6.97;;;3.65;;
76123;SDS011;65173;48.066;20.976;2023-03-14T02:18:04;9.77;;;4.55;;
76123;SDS011;65173;48.066;20.976;2023-03-14T02:21:45;8.57;;;4.10;;
76123;SDS011;65173;48.066;20.976;2023-03-14T02:28:11;10.15;;;5.30;;
76123;SDS011;65173;48.066;20.976;2023-03-14T02:31:15;9.18;;;4.43;;
76123;SDS011;65173;48.066;20.976;2023-03-14T02:34:18;8.05;;;4.95;;
76123;SDS011;65173;48.066;20.976;2023-03-14T02:37:22;9.93;;;5.22;;
76123;SDS011;65173;48.066;20.976;2023-03-14T02:40:32;9.05;;;4.93;;
76123;SDS011;65173;48.066;20.976;2023-03-14T02:43:35;9.00;;;4.37;;
76123;SDS011;65173;48.066;20.976;2023-03-14T02:46:42;7.68;;;4.25;;
76123;SDS011;65173;48.066;20.976;2023-03-14T02:49:46;9.55;;;4.22;;
76123;SDS011;65173;48.066;20.976;2023-03-14T02:52:49;4.67;;;3.20;;
76123;SDS011;65173;48.066;20.976;2023-03-14T02:55:53;6.38;;;3.30;;
76123;SDS011;65173;48.066;20.976;2023-03-14T02:58:57;9.00;;;5.15;;
76123;SDS011;65173;48.066;20.976;2023-03-14T03:02:08;8.75;;;5.05;;
76123;SDS011;65173;48.066;20.976;2023-03-14T03:05:11;6.93;;;3.50;;
76123;SDS011;65173;48.066;20.976;2023-03-14T03:08:14;10.95;;;5.03;;
76123;SDS011;65173;48.066;20.976;2023-03-14T03:11:17;13.00;;;6.18;;
76123;SDS011;65173;48.066;20.976;2023-03-14T03:14:20;9.50;;;5.10;;
76123;SDS011;65173;48.066;20.976;2023-03-14T03:17:22;8.57;;;5.95;;
76123;SDS011;65173;48.066;20.976;2023-03-14T03:20:25;11.02;;;5.80;;
76123;SDS011;65173;48.066;20.976;2023-03-14T03:23:28;17.30;;;8.83;;
76123;SDS011;65173;48.066;20.976;2023-03-14T03:26:33;22.95;;;11.27;;
76123;SDS011;65173;48.066;20.976;2023-03-14T03:29:39;13.75;;;6.95;;
76123;SDS011;65173;48.066;20.976;2023-03-14T03:32:42;11.18;;;6.43;;
76123;SDS011;65173;48.066;20.976;2023-03-14T03:35:47;12.95;;;6.25;;
76123;SDS011;65173;48.066;20.976;2023-03-14T03:38:57;14.00;;;6.63;;
76123;SDS011;65173;48.066;20.976;2023-03-14T03:42:00;11.77;;;6.07;;
76123;SDS011;65173;48.066;20.976;2023-03-14T03:45:03;6.90;;;3.90;;
76123;SDS011;65173;48.066;20.976;2023-03-14T03:48:10;10.90;;;5.20;;
76123;SDS011;65173;48.066;20.976;2023-03-14T03:51:14;7.18;;;4.13;;
76123;SDS011;65173;48.066;20.976;2023-03-14T03:54:18;6.73;;;3.90;;
76123;SDS011;65173;48.066;20.976;2023-03-14T03:57:21;6.93;;;3.90;;
76123;SDS011;65173;48.066;20.976;2023-03-14T04:00:26;6.80;;;3.53;;
76123;SDS011;65173;48.066;20.976;2023-03-14T04:03:30;4.85;;;2.58;;
76123;SDS011;65173;48.066;20.976;2023-03-14T04:06:32;4.78;;;2.05;;
76123;SDS011;65173;48.066;20.976;2023-03-14T04:09:37;9.75;;;4.63;;
76123;SDS011;65173;48.066;20.976;2023-03-14T04:12:53;5.63;;;3.35;;
76123;SDS011;65173;48.066;20.976;2023-03-14T04:15:59;4.77;;;2.50;;
76123;SDS011;65173;48.066;20.976;2023-03-14T04:19:03;3.13;;;1.98;;
76123;SDS011;65173;48.066;20.976;2023-03-14T04:22:06;5.55;;;3.75;;
76123;SDS011;65173;48.066;20.976;2023-03-14T04:25:18;5.33;;;3.30;;
76123;SDS011;65173;48.066;20.976;2023-03-14T04:28:27;7.13;;;3.53;;
76123;SDS011;65173;48.066;20.976;2023-03-14T04:31:30;5.07;;;3.53;;
76123;SDS011;65173;48.066;20.976;2023-03-14T04:34:33;10.82;;;4.22;;
76123;SDS011;65173;48.066;20.976;2023-03-14T04:37:36;5.05;;;3.25;;
76123;SDS011;65173;48.066;20.976;2023-03-14T04:40:41;2.53;;;1.83;;
76123;SDS011;65173;48.066;20.976;2023-03-14T04:43:44;6.20;;;3.83;;
76123;SDS011;65173;48.066;20.976;2023-03-14T04:46:48;7.93;;;3.63;;
76123;SDS011;65173;48.066;20.976;2023-03-14T04:49:51;6.35;;;2.88;;
76123;SDS011;65173;48.066;20.976;2023-03-14T04:52:54;6.13;;;3.92;;
76123;SDS011;65173;48.066;20.976;2023-03-14T04:55:57;5.20;;;2.90;;
76123;SDS011;65173;48.066;20.976;2023-03-14T04:59:07;5.38;;;2.88;;
76123;SDS011;65173;48.066;20.976;2023-03-14T05:02:12;8.45;;;4.90;;
76123;SDS011;65173;48.066;20.976;2023-03-14T05:05:29;9.68;;;4.82;;
76123;SDS011;65173;48.066;20.976;2023-03-14T05:08:52;5.03;;;3.30;;
76123;SDS011;65173;48.066;20.976;2023-03-14T05:12:10;6.60;;;3.72;;
76123;SDS011;65173;48.066;20.976;2023-03-14T05:15:42;6.25;;;4.10;;
76123;SDS011;65173;48.066;20.976;2023-03-14T05:18:56;7.77;;;3.90;;
76123;SDS011;65173;48.066;20.976;2023-03-14T05:22:18;6.20;;;4.28;;
76123;SDS011;65173;48.066;20.976;2023-03-14T05:25:31;7.70;;;4.55;;
76123;SDS011;65173;48.066;20.976;2023-03-14T05:28:56;7.97;;;3.80;;
76123;SDS011;65173;48.066;20.976;2023-03-14T05:32:09;9.25;;;4.57;;
76123;SDS011;65173;48.066;20.976;2023-03-14T05:35:30;35.90;;;12.18;;
76123;SDS011;65173;48.066;20.976;2023-03-14T05:39:05;28.55;;;11.20;;
76123;SDS011;65173;48.066;20.976;2023-03-14T05:42:26;16.40;;;7.72;;
76123;SDS011;65173;48.066;20.976;2023-03-14T05:45:51;12.68;;;5.80;;
76123;SDS011;65173;48.066;20.976;2023-03-14T05:49:17;9.82;;;5.25;;
76123;SDS011;65173;48.066;20.976;2023-03-14T05:52:31;11.63;;;6.37;;
76123;SDS011;65173;48.066;20.976;2023-03-14T05:56:02;11.68;;;5.72;;
76123;SDS011;65173;48.066;20.976;2023-03-14T05:59:21;8.52;;;4.75;;
76123;SDS011;65173;48.066;20.976;2023-03-14T06:02:35;9.90;;;4.90;;
76123;SDS011;65173;48.066;20.976;2023-03-14T06:05:49;8.35;;;4.32;;
76123;SDS011;65173;48.066;20.976;2023-03-14T06:08:55;8.02;;;4.95;;
76123;SDS011;65173;48.066;20.976;2023-03-14T06:11:58;7.03;;;4.15;;
76123;SDS011;65173;48.066;20.976;2023-03-14T06:15:01;5.07;;;3.08;;
76123;SDS011;65173;48.066;20.976;2023-03-14T06:18:05;7.82;;;4.25;;
76123;SDS011;65173;48.066;20.976;2023-03-14T06:21:09;6.03;;;3.65;;
76123;SDS011;65173;48.066;20.976;2023-03-14T06:24:12;6.23;;;3.53;;
76123;SDS011;65173;48.066;20.976;2023-03-14T06:27:20;6.22;;;3.85;;
76123;SDS011;65173;48.066;20.976;2023-03-14T06:30:27;7.40;;;3.50;;
76123;SDS011;65173;48.066;20.976;2023-03-14T06:33:30;8.17;;;5.27;;
76123;SDS011;65173;48.066;20.976;2023-03-14T06:36:39;8.05;;;4.20;;
76123;SDS011;65173;48.066;20.976;2023-03-14T06:39:42;14.02;;;5.63;;
76123;SDS011;65173;48.066;20.976;2023-03-14T06:42:55;10.13;;;5.55;;
76123;SDS011;65173;48.066;20.976;2023-03-14T06:46:00;8.73;;;4.85;;
76123;SDS011;65173;48.066;20.976;2023-03-14T06:49:06;10.68;;;4.65;;
76123;SDS011;65173;48.066;20.976;2023-03-14T06:52:09;9.65;;;4.85;;
76123;SDS011;65173;48.066;20.976;2023-03-14T06:55:12;8.83;;;4.33;;
76123;SDS011;65173;48.066;20.976;2023-03-14T06:58:15;7.72;;;4.07;;
76123;SDS011;65173;48.066;20.976;2023-03-14T07:01:21;7.40;;;3.67;;
76123;SDS011;65173;48.066;20.976;2023-03-14T07:04:27;5.53;;;3.60;;
76123;SDS011;65173;48.066;20.976;2023-03-14T07:07:29;6.57;;;3.70;;
76123;SDS011;65173;48.066;20.976;2023-03-14T07:10:32;6.70;;;3.80;;
76123;SDS011;65173;48.066;20.976;2023-03-14T07:13:35;8.02;;;5.07;;
76123;SDS011;65173;48.066;20.976;2023-03-14T07:16:40;4.57;;;2.00;;
76123;SDS011;65173;48.066;20.976;2023-03-14T07:19:44;7.40;;;3.22;;
76123;SDS011;65173;48.066;20.976;2023-03-14T07:22:47;4.38;;;2.42;;
76123;SDS011;65173;48.066;20.976;2023-03-14T07:25:57;7.47;;;4.00;;
76123;SDS011;65173;48.066;20.976;2023-03-14T07:29:01;5.20;;;3.05;;
76123;SDS011;65173;48.066;20.976;2023-03-14T07:32:07;4.07;;;2.45;;
76123;SDS011;65173;48.066;20.976;2023-03-14T07:35:11;9.13;;;4.10;;
76123;SDS011;65173;48.066;20.976;2023-03-14T07:38:15;4.97;;;2.90;;
76123;SDS011;65173;48.066;20.976;2023-03-14T07:41:38;4.82;;;2.67;;
76123;SDS011;65173;48.066;20.976;2023-03-14T07:45:08;4.40;;;2.75;;
76123;SDS011;65173;48.066;20.976;2023-03-14T07:48:11;4.18;;;3.15;;
76123;SDS011;65173;48.066;20.976;2023-03-14T07:51:14;2.45;;;2.00;;
76123;SDS011;65173;48.066;20.976;2023-03-14T07:54:17;5.55;;;2.65;;
76123;SDS011;65173;48.066;20.976;2023-03-14T07:57:22;2.97;;;2.20;;
76123;SDS011;65173;48.066;20.976;2023-03-14T08:00:26;4.53;;;3.38;;
76123;SDS011;65173;48.066;20.976;2023-03-14T08:03:29;6.07;;;2.78;;
76123;SDS011;65173;48.066;20.976;2023-03-14T08:06:31;6.30;;;2.27;;
76123;SDS011;65173;48.066;20.976;2023-03-14T08:09:34;4.40;;;3.10;;
76123;SDS011;65173;48.066;20.976;2023-03-14T08:12:37;4.78;;;2.97;;
76123;SDS011;65173;48.066;20.976;2023-03-14T08:15:40;5.45;;;2.63;;
76123;SDS011;65173;48.066;20.976;2023-03-14T08:18:43;6.00;;;2.97;;
76123;SDS011;65173;48.066;20.976;2023-03-14T08:21:47;3.67;;;2.72;;
76123;SDS011;65173;48.066;20.976;2023-03-14T08:24:50;7.53;;;2.60;;
76123;SDS011;65173;48.066;20.976;2023-03-14T08:27:52;3.67;;;2.53;;
76123;SDS011;65173;48.066;20.976;2023-03-14T08:30:59;1.67;;;1.08;;
76123;SDS011;65173;48.066;20.976;2023-03-14T08:34:02;3.97;;;2.55;;
76123;SDS011;65173;48.066;20.976;2023-03-14T08:37:05;4.77;;;3.07;;
76123;SDS011;65173;48.066;20.976;2023-03-14T08:40:25;3.10;;;2.17;;
76123;SDS011;65173;48.066;20.976;2023-03-14T08:43:28;3.55;;;2.72;;
76123;SDS011;65173;48.066;20.976;2023-03-14T08:46:30;6.10;;;3.63;;
76123;SDS011;65173;48.066;20.976;2023-03-14T08:49:33;5.75;;;3.40;;
76123;SDS011;65173;48.066;20.976;2023-03-14T08:52:36;11.68;;;4.13;;
76123;SDS011;65173;48.066;20.976;2023-03-14T08:55:40;6.60;;;3.03;;
76123;SDS011;65173;48.066;20.976;2023-03-14T08:58:42;6.50;;;3.37;;
76123;SDS011;65173;48.066;20.976;2023-03-14T09:01:46;10.43;;;2.90;;
76123;SDS011;65173;48.066;20.976;2023-03-14T09:04:49;6.60;;;3.53;;
76123;SDS011;65173;48.066;20.976;2023-03-14T09:07:52;5.10;;;3.97;;
76123;SDS011;65173;48.066;20.976;2023-03-14T09:10:55;2.28;;;1.58;;
76123;SDS011;65173;48.066;20.976;2023-03-14T09:13:57;5.97;;;3.72;;
76123;SDS011;65173;48.066;20.976;2023-03-14T09:17:00;4.72;;;2.47;;
76123;SDS011;65173;48.066;20.976;2023-03-14T09:20:04;8.98;;;4.07;;
76123;SDS011;65173;48.066;20.976;2023-03-14T09:23:09;7.45;;;3.75;;
76123;SDS011;65173;48.066;20.976;2023-03-14T09:26:12;7.72;;;4.03;;
76123;SDS011;65173;48.066;20.976;2023-03-14T09:29:15;3.93;;;2.13;;
76123;SDS011;65173;48.066;20.976;2023-03-14T09:32:17;3.90;;;2.60;;
76123;SDS011;65173;48.066;20.976;2023-03-14T09:35:20;5.38;;;2.88;;
76123;SDS011;65173;48.066;20.976;2023-03-14T09:38:23;3.30;;;2.60;;
76123;SDS011;65173;48.066;20.976;2023-03-14T09:41:31;4.30;;;2.78;;
76123;SDS011;65173;48.066;20.976;2023-03-14T09:44:42;4.35;;;2.83;;
76123;SDS011;65173;48.066;20.976;2023-03-14T09:48:03;2.67;;;2.13;;
76123;SDS011;65173;48.066;20.976;2023-03-14T09:51:27;6.85;;;3.83;;
76123;SDS011;65173;48.066;20.976;2023-03-14T09:57:41;3.83;;;2.83;;
76123;SDS011;65173;48.066;20.976;2023-03-14T10:00:49;5.17;;;2.90;;
76123;SDS011;65173;48.066;20.976;2023-03-14T10:03:56;7.32;;;3.15;;
76123;SDS011;65173;48.066;20.976;2023-03-14T10:07:02;6.22;;;3.53;;
76123;SDS011;65173;48.066;20.976;2023-03-14T10:10:13;5.87;;;2.90;;
76123;SDS011;65173;48.066;20.976;2023-03-14T10:13:24;5.47;;;3.20;;
76123;SDS011;65173;48.066;20.976;2023-03-14T10:16:31;4.38;;;2.80;;
76123;SDS011;65173;48.066;20.976;2023-03-14T10:19:35;4.38;;;2.88;;
76123;SDS011;65173;48.066;20.976;2023-03-14T10:22:38;5.00;;;3.13;;
76123;SDS011;65173;48.066;20.976;2023-03-14T10:25:45;3.05;;;2.50;;
76123;SDS011;65173;48.066;20.976;2023-03-14T10:29:03;6.50;;;3.15;;
76123;SDS011;65173;48.066;20.976;2023-03-14T10:32:18;4.43;;;2.13;;
76123;SDS011;65173;48.066;20.976;2023-03-14T10:35:22;3.35;;;2.50;;
76123;SDS011;65173;48.066;20.976;2023-03-14T10:38:29;6.43;;;2.55;;
76123;SDS011;65173;48.066;20.976;2023-03-14T10:41:33;4.00;;;2.40;;
76123;SDS011;65173;48.066;20.976;2023-03-14T10:44:36;5.93;;;2.00;;
76123;SDS011;65173;48.066;20.976;2023-03-14T10:47:48;4.45;;;2.30;;
76123;SDS011;65173;48.066;20.976;2023-03-14T10:54:13;5.07;;;2.67;;
76123;SDS011;65173;48.066;20.976;2023-03-14T10:57:21;2.90;;;1.90;;
76123;SDS011;65173;48.066;20.976;2023-03-14T11:00:24;2.63;;;1.75;;
76123;SDS011;65173;48.066;20.976;2023-03-14T11:03:28;6.77;;;2.70;;
76123;SDS011;65173;48.066;20.976;2023-03-14T11:16:49;3.28;;;2.10;;
76123;SDS011;65173;48.066;20.976;2023-03-14T11:20:25;3.63;;;2.40;;
76123;SDS011;65173;48.066;20.976;2023-03-14T11:23:42;2.80;;;1.60;;
76123;SDS011;65173;48.066;20.976;2023-03-14T11:27:11;3.70;;;2.35;;
76123;SDS011;65173;48.066;20.976;2023-03-14T11:33:47;4.25;;;2.78;;
76123;SDS011;65173;48.066;20.976;2023-03-14T11:37:07;2.47;;;1.60;;
76123;SDS011;65173;48.066;20.976;2023-03-14T11:40:21;1.95;;;1.75;;
76123;SDS011;65173;48.066;20.976;2023-03-14T11:43:28;6.80;;;3.00;;
76123;SDS011;65173;48.066;20.976;2023-03-14T11:49:52;3.95;;;2.08;;
76123;SDS011;65173;48.066;20.976;2023-03-14T11:53:03;3.13;;;2.33;;
76123;SDS011;65173;48.066;20.976;2023-03-14T11:56:14;6.43;;;2.50;;
76123;SDS011;65173;48.066;20.976;2023-03-14T11:59:44;2.58;;;2.03;;
76123;SDS011;65173;48.066;20.976;2023-03-14T12:06:30;6.40;;;2.28;;
76123;SDS011;65173;48.066;20.976;2023-03-14T12:09:42;2.50;;;1.93;;
76123;SDS011;65173;48.066;20.976;2023-03-14T12:12:45;3.40;;;2.58;;
76123;SDS011;65173;48.066;20.976;2023-03-14T12:15:50;4.63;;;1.83;;
76123;SDS011;65173;48.066;20.976;2023-03-14T12:18:57;2.93;;;2.00;;
76123;SDS011;65173;48.066;20.976;2023-03-14T12:25:25;3.40;;;2.40;;
76123;SDS011;65173;48.066;20.976;2023-03-14T12:28:30;4.88;;;2.25;;
76123;SDS011;65173;48.066;20.976;2023-03-14T12:31:37;4.28;;;2.35;;
76123;SDS011;65173;48.066;20.976;2023-03-14T12:34:43;5.18;;;2.10;;
76123;SDS011;65173;48.066;20.976;2023-03-14T12:37:49;3.67;;;1.67;;
76123;SDS011;65173;48.066;20.976;2023-03-14T12:44:37;3.03;;;2.22;;
76123;SDS011;65173;48.066;20.976;2023-03-14T12:47:42;2.85;;;1.92;;
76123;SDS011;65173;48.066;20.976;2023-03-14T12:50:53;2.87;;;2.40;;
76123;SDS011;65173;48.066;20.976;2023-03-14T12:57:52;4.05;;;1.60;;
76123;SDS011;65173;48.066;20.976;2023-03-14T13:01:02;2.67;;;1.40;;
76123;SDS011;65173;48.066;20.976;2023-03-14T13:04:08;2.42;;;1.50;;
76123;SDS011;65173;48.066;20.976;2023-03-14T13:10:47;4.07;;;1.63;;
76123;SDS011;65173;48.066;20.976;2023-03-14T13:13:56;1.37;;;1.20;;
76123;SDS011;65173;48.066;20.976;2023-03-14T13:17:00;2.03;;;1.60;;
76123;SDS011;65173;48.066;20.976;2023-03-14T13:23:31;3.00;;;1.53;;
76123;SDS011;65173;48.066;20.976;2023-03-14T13:26:36;3.38;;;1.83;;
76123;SDS011;65173;48.066;20.976;2023-03-14T13:29:41;2.35;;;1.40;;
76123;SDS011;65173;48.066;20.976;2023-03-14T13:32:45;3.38;;;1.67;;
76123;SDS011;65173;48.066;20.976;2023-03-14T13:35:57;4.80;;;1.95;;
76123;SDS011;65173;48.066;20.976;2023-03-14T13:39:02;2.67;;;1.30;;
76123;SDS011;65173;48.066;20.976;2023-03-14T13:42:14;6.38;;;2.05;;
76123;SDS011;65173;48.066;20.976;2023-03-14T13:45:18;3.37;;;2.00;;
76123;SDS011;65173;48.066;20.976;2023-03-14T13:48:22;4.40;;;1.92;;
76123;SDS011;65173;48.066;20.976;2023-03-14T13:51:28;3.15;;;1.67;;
76123;SDS011;65173;48.066;20.976;2023-03-14T13:54:33;2.20;;;1.27;;
76123;SDS011;65173;48.066;20.976;2023-03-14T13:57:45;1.55;;;1.30;;
76123;SDS011;65173;48.066;20.976;2023-03-14T14:01:04;2.03;;;1.38;;
76123;SDS011;65173;48.066;20.976;2023-03-14T14:04:15;4.93;;;1.98;;
76123;SDS011;65173;48.066;20.976;2023-03-14T14:07:24;3.05;;;1.75;;
76123;SDS011;65173;48.066;20.976;2023-03-14T14:10:27;5.80;;;1.88;;
76123;SDS011;65173;48.066;20.976;2023-03-14T14:13:32;1.98;;;1.65;;
76123;SDS011;65173;48.066;20.976;2023-03-14T14:16:37;2.73;;;1.70;;
76123;SDS011;65173;48.066;20.976;2023-03-14T14:19:40;2.45;;;1.55;;
76123;SDS011;65173;48.066;20.976;2023-03-14T14:22:45;2.95;;;1.55;;
76123;SDS011;65173;48.066;20.976;2023-03-14T14:25:48;2.70;;;1.63;;
76123;SDS011;65173;48.066;20.976;2023-03-14T14:29:02;2.25;;;1.83;;
76123;SDS011;65173;48.066;20.976;2023-03-14T14:35:33;1.98;;;1.58;;
76123;SDS011;65173;48.066;20.976;2023-03-14T14:38:37;1.65;;;1.38;;
76123;SDS011;65173;48.066;20.976;2023-03-14T14:41:41;2.97;;;1.52;;
76123;SDS011;65173;48.066;20.976;2023-03-14T14:44:44;2.17;;;1.70;;
76123;SDS011;65173;48.066;20.976;2023-03-14T14:47:57;7.27;;;2.10;;
76123;SDS011;65173;48.066;20.976;2023-03-14T14:51:07;2.40;;;1.70;;
76123;SDS011;65173;48.066;20.976;2023-03-14T14:54:11;4.25;;;1.45;;
76123;SDS011;65173;48.066;20.976;2023-03-14T14:57:24;4.10;;;1.60;;
76123;SDS011;65173;48.066;20.976;2023-03-14T15:00:32;2.42;;;1.40;;
76123;SDS011;65173;48.066;20.976;2023-03-14T15:03:35;2.47;;;1.83;;
76123;SDS011;65173;48.066;20.976;2023-03-14T15:06:38;3.60;;;1.45;;
76123;SDS011;65173;48.066;20.976;2023-03-14T15:09:42;5.35;;;1.40;;
76123;SDS011;65173;48.066;20.976;2023-03-14T15:12:45;4.22;;;1.92;;
76123;SDS011;65173;48.066;20.976;2023-03-14T15:15:50;2.83;;;1.33;;
76123;SDS011;65173;48.066;20.976;2023-03-14T15:19:00;3.17;;;1.47;;
76123;SDS011;65173;48.066;20.976;2023-03-14T15:22:24;3.38;;;1.35;;
76123;SDS011;65173;48.066;20.976;2023-03-14T15:25:27;3.67;;;1.40;;
76123;SDS011;65173;48.066;20.976;2023-03-14T15:28:49;3.03;;;1.50;;
76123;SDS011;65173;48.066;20.976;2023-03-14T15:31:52;3.65;;;1.42;;
76123;SDS011;65173;48.066;20.976;2023-03-14T15:34:55;1.63;;;1.10;;
76123;SDS011;65173;48.066;20.976;2023-03-14T15:37:58;1.55;;;1.45;;
76123;SDS011;65173;48.066;20.976;2023-03-14T15:41:02;1.45;;;1.27;;
76123;SDS011;65173;48.066;20.976;2023-03-14T15:44:05;2.80;;;1.48;;
76123;SDS011;65173;48.066;20.976;2023-03-14T15:47:08;2.08;;;1.80;;
76123;SDS011;65173;48.066;20.976;2023-03-14T15:50:12;4.17;;;1.80;;
76123;SDS011;65173;48.066;20.976;2023-03-14T15:53:18;5.25;;;1.70;;
76123;SDS011;65173;48.066;20.976;2023-03-14T15:56:20;3.88;;;2.20;;
76123;SDS011;65173;48.066;20.976;2023-03-14T15:59:26;5.40;;;2.20;;
76123;SDS011;65173;48.066;20.976;2023-03-14T16:02:29;4.43;;;2.47;;
76123;SDS011;65173;48.066;20.976;2023-03-14T16:05:32;3.00;;;2.25;;
76123;SDS011;65173;48.066;20.976;2023-03-14T16:08:34;3.78;;;2.33;;
76123;SDS011;65173;48.066;20.976;2023-03-14T16:11:37;5.35;;;2.55;;
76123;SDS011;65173;48.066;20.976;2023-03-14T16:14:40;5.13;;;2.20;;
76123;SDS011;65173;48.066;20.976;2023-03-14T16:17:44;6.07;;;2.78;;
76123;SDS011;65173;48.066;20.976;2023-03-14T16:20:52;5.20;;;2.30;;
76123;SDS011;65173;48.066;20.976;2023-03-14T16:24:01;6.13;;;2.47;;
76123;SDS011;65173;48.066;20.976;2023-03-14T16:27:08;5.60;;;2.40;;
76123;SDS011;65173;48.066;20.976;2023-03-14T16:30:11;7.00;;;2.93;;
76123;SDS011;65173;48.066;20.976;2023-03-14T16:33:19;4.60;;;2.33;;
76123;SDS011;65173;48.066;20.976;2023-03-14T16:36:21;3.22;;;2.40;;
76123;SDS011;65173;48.066;20.976;2023-03-14T16:39:24;6.18;;;2.75;;
76123;SDS011;65173;48.066;20.976;2023-03-14T16:42:29;5.25;;;2.70;;
76123;SDS011;65173;48.066;20.976;2023-03-14T16:45:33;5.65;;;2.53;;
76123;SDS011;65173;48.066;20.976;2023-03-14T16:48:38;5.53;;;2.83;;
76123;SDS011;65173;48.066;20.976;2023-03-14T16:51:41;5.50;;;3.23;;
76123;SDS011;65173;48.066;20.976;2023-03-14T16:54:44;6.60;;;2.92;;
76123;SDS011;65173;48.066;20.976;2023-03-14T16:57:47;5.78;;;3.00;;
76123;SDS011;65173;48.066;20.976;2023-03-14T17:00:50;5.27;;;2.80;;
76123;SDS011;65173;48.066;20.976;2023-03-14T17:03:53;5.15;;;2.70;;
76123;SDS011;65173;48.066;20.976;2023-03-14T17:06:56;4.47;;;2.45;;
76123;SDS011;65173;48.066;20.976;2023-03-14T17:09:59;4.20;;;2.50;;
76123;SDS011;65173;48.066;20.976;2023-03-14T17:13:02;5.05;;;2.60;;
76123;SDS011;65173;48.066;20.976;2023-03-14T17:16:04;5.80;;;3.25;;
76123;SDS011;65173;48.066;20.976;2023-03-14T17:19:07;4.38;;;3.00;;
76123;SDS011;65173;48.066;20.976;2023-03-14T17:22:10;5.70;;;3.40;;
76123;SDS011;65173;48.066;20.976;2023-03-14T17:25:25;16.75;;;5.45;;
76123;SDS011;65173;48.066;20.976;2023-03-14T17:28:28;13.15;;;5.68;;
76123;SDS011;65173;48.066;20.976;2023-03-14T17:31:31;21.60;;;8.20;;
76123;SDS011;65173;48.066;20.976;2023-03-14T17:34:34;19.30;;;8.02;;
76123;SDS011;65173;48.066;20.976;2023-03-14T17:37:37;25.92;;;11.18;;
76123;SDS011;65173;48.066;20.976;2023-03-14T17:40:40;23.95;;;10.68;;
76123;SDS011;65173;48.066;20.976;2023-03-14T17:43:48;21.17;;;8.40;;
76123;SDS011;65173;48.066;20.976;2023-03-14T17:46:51;8.90;;;5.00;;
76123;SDS011;65173;48.066;20.976;2023-03-14T17:49:54;8.35;;;4.72;;
76123;SDS011;65173;48.066;20.976;2023-03-14T17:52:58;5.67;;;3.80;;
76123;SDS011;65173;48.066;20.976;2023-03-14T17:56:00;6.80;;;4.00;;
76123;SDS011;65173;48.066;20.976;2023-03-14T17:59:05;6.40;;;4.32;;
76123;SDS011;65173;48.066;20.976;2023-03-14T18:02:08;9.53;;;5.40;;
76123;SDS011;65173;48.066;20.976;2023-03-14T18:05:13;7.50;;;4.35;;
76123;SDS011;65173;48.066;20.976;2023-03-14T18:08:15;8.80;;;5.03;;
76123;SDS011;65173;48.066;20.976;2023-03-14T18:11:20;7.55;;;4.18;;
76123;SDS011;65173;48.066;20.976;2023-03-14T18:14:23;7.95;;;4.70;;
76123;SDS011;65173;48.066;20.976;2023-03-14T18:17:26;13.88;;;7.22;;
76123;SDS011;65173;48.066;20.976;2023-03-14T18:20:30;15.05;;;8.05;;
76123;SDS011;65173;48.066;20.976;2023-03-14T18:23:33;12.67;;;6.27;;
76123;SDS011;65173;48.066;20.976;2023-03-14T18:26:37;9.65;;;4.60;;
76123;SDS011;65173;48.066;20.976;2023-03-14T18:29:40;7.82;;;4.00;;
76123;SDS011;65173;48.066;20.976;2023-03-14T18:32:43;7.30;;;3.30;;
76123;SDS011;65173;48.066;20.976;2023-03-14T18:35:47;5.93;;;3.25;;
76123;SDS011;65173;48.066;20.976;2023-03-14T18:38:53;6.90;;;3.03;;
76123;SDS011;65173;48.066;20.976;2023-03-14T18:41:58;6.65;;;3.13;;
76123;SDS011;65173;48.066;20.976;2023-03-14T18:45:01;12.65;;;3.40;;
76123;SDS011;65173;48.066;20.976;2023-03-14T18:48:04;9.13;;;4.15;;
76123;SDS011;65173;48.066;20.976;2023-03-14T18:51:11;7.10;;;4.25;;
76123;SDS011;65173;48.066;20.976;2023-03-14T18:54:18;8.23;;;4.40;;
76123;SDS011;65173;48.066;20.976;2023-03-14T18:57:21;9.52;;;4.20;;
76123;SDS011;65173;48.066;20.976;2023-03-14T19:00:24;10.00;;;4.63;;
76123;SDS011;65173;48.066;20.976;2023-03-14T19:03:30;6.70;;;4.13;;
76123;SDS011;65173;48.066;20.976;2023-03-14T19:06:34;5.88;;;3.83;;
76123;SDS011;65173;48.066;20.976;2023-03-14T19:09:37;8.20;;;4.88;;
76123;SDS011;65173;48.066;20.976;2023-03-14T19:12:43;8.80;;;4.53;;
76123;SDS011;65173;48.066;20.976;2023-03-14T19:15:45;5.35;;;3.78;;
76123;SDS011;65173;48.066;20.976;2023-03-14T19:18:49;6.78;;;4.00;;
76123;SDS011;65173;48.066;20.976;2023-03-14T19:21:53;11.80;;;4.70;;